PWSweather.com
Personal Weather Stations
Station Observations
SHAHALMS1
Eftra, Falkenberg, HA

EftraFalkenberg, HA

Lat: 56.85, Lon: 12.65

Elevation: 140

Station Type:

http://hem.passagen.se/risarp101

High Low Average
Temperature 54.1°F12.3°C 48.7°F9.3°C 51.5°F10.8°C
Dew Point 51.7°F10.9°C 40.1°F4.5°C 46.5°F8.1°C
Winds 15.6 mph 25.1 kmh 4.2 mph 6.8 kmh 10.0 mph SSW16.1 kmh SSW
Wind Gusts 41.5 mph66.8 kmh 6.4 mph10.3 kmh 22.0 mph35.4 kmh
Humidity 92% 70% 83%
Pressure 30.04 in1017.3 mb 29.89 in1012.2 mb -
Precipitation 0.19 in4.8 mm - -
Hour Temp Dew Point Humidity Winds Wind Gusts Pressure Precip Precip Rate Daily Precip Total
12:00 AM 49.5°F9.7°C 42.5°F5.8°C 77% 6.0 mph W9.7 kmh W 12.2 mph19.6 kmh 30.01 in1016.3 mb 0.00 in0.0 mm 0.00 in0.0 mm 0.00 in0.0 mm
12:15 AM 49.5°F9.7°C 42.2°F5.7°C 76% 6.6 mph W10.6 kmh W 12.9 mph20.8 kmh 30.04 in1017.3 mb 0.00 in0.0 mm 0.00 in0.0 mm 0.00 in0.0 mm
12:30 AM 49.5°F9.7°C 41.9°F5.5°C 75% 5.7 mph W9.2 kmh W 15.0 mph24.1 kmh 30.04 in1017.3 mb 0.00 in0.0 mm 0.00 in0.0 mm 0.00 in0.0 mm
12:45 AM 49.3°F9.6°C 41.3°F5.2°C 74% 4.2 mph W6.8 kmh W 12.5 mph20.1 kmh 30.04 in1017.3 mb 0.00 in0.0 mm 0.00 in0.0 mm 0.00 in0.0 mm
01:00 AM 49.1°F9.5°C 40.8°F4.9°C 73% 4.6 mph W7.4 kmh W 11.8 mph19.0 kmh 30.04 in1017.3 mb 0.00 in0.0 mm 0.00 in0.0 mm 0.00 in0.0 mm
01:15 AM 48.9°F9.4°C 40.6°F4.8°C 73% 5.2 mph W8.4 kmh W 12.2 mph19.6 kmh 30.01 in1016.3 mb 0.00 in0.0 mm 0.00 in0.0 mm 0.00 in0.0 mm
01:30 AM 48.7°F9.3°C 40.5°F4.7°C 73% 4.7 mph S7.6 kmh S 10.4 mph16.7 kmh 30.04 in1017.3 mb 0.00 in0.0 mm 0.00 in0.0 mm 0.00 in0.0 mm
01:45 AM 48.9°F9.4°C 41.0°F5.0°C 74% 4.5 mph S7.2 kmh S 9.7 mph15.6 kmh 30.01 in1016.3 mb 0.00 in0.0 mm 0.00 in0.0 mm 0.00 in0.0 mm
02:00 AM 49.3°F9.6°C 40.6°F4.8°C 72% 6.6 mph S10.6 kmh S 16.8 mph27.0 kmh 29.98 in1015.2 mb 0.00 in0.0 mm 0.00 in0.0 mm 0.00 in0.0 mm
02:15 AM 49.1°F9.5°C 40.5°F4.7°C 72% 6.6 mph SW10.6 kmh SW 14.7 mph23.7 kmh 30.01 in1016.3 mb 0.00 in0.0 mm 0.00 in0.0 mm 0.00 in0.0 mm
02:30 AM 49.5°F9.7°C 40.8°F4.9°C 72% 10.1 mph SW16.3 kmh SW 23.6 mph38.0 kmh 29.98 in1015.2 mb 0.00 in0.0 mm 0.00 in0.0 mm 0.00 in0.0 mm
02:45 AM 49.8°F9.9°C 40.8°F4.9°C 71% 9.1 mph SW14.6 kmh SW 19.7 mph31.7 kmh 29.98 in1015.2 mb 0.00 in0.0 mm 0.00 in0.0 mm 0.00 in0.0 mm
03:00 AM 49.5°F9.7°C 40.1°F4.5°C 70% 8.9 mph WSW14.3 kmh WSW 21.1 mph34.0 kmh 29.98 in1015.2 mb 0.00 in0.0 mm 0.00 in0.0 mm 0.00 in0.0 mm
03:15 AM 49.5°F9.7°C 40.1°F4.5°C 70% 8.7 mph SW14.0 kmh SW 21.1 mph34.0 kmh 29.98 in1015.2 mb 0.00 in0.0 mm 0.00 in0.0 mm 0.00 in0.0 mm
03:30 AM 49.5°F9.7°C 40.1°F4.5°C 70% 7.9 mph SW12.7 kmh SW 17.2 mph27.7 kmh 29.95 in1014.2 mb 0.00 in0.0 mm 0.00 in0.0 mm 0.00 in0.0 mm
03:45 AM 49.6°F9.8°C 40.6°F4.8°C 71% 7.7 mph WSW12.4 kmh WSW 15.7 mph25.3 kmh 29.98 in1015.2 mb 0.00 in0.0 mm 0.00 in0.0 mm 0.00 in0.0 mm
04:00 AM 49.6°F9.8°C 40.6°F4.8°C 71% 7.7 mph SSW12.4 kmh SSW 19.7 mph31.7 kmh 29.98 in1015.2 mb 0.00 in0.0 mm 0.00 in0.0 mm 0.00 in0.0 mm
04:15 AM 49.8°F9.9°C 40.8°F4.9°C 71% 8.6 mph WSW13.8 kmh WSW 17.2 mph27.7 kmh 29.98 in1015.2 mb 0.00 in0.0 mm 0.00 in0.0 mm 0.00 in0.0 mm
04:30 AM 49.8°F9.9°C 40.8°F4.9°C 71% 8.1 mph SW13.0 kmh SW 16.1 mph25.9 kmh 29.98 in1015.2 mb 0.00 in0.0 mm 0.00 in0.0 mm 0.00 in0.0 mm
04:45 AM 50.0°F10.0°C 41.0°F5.0°C 71% 8.9 mph SW14.3 kmh SW 19.0 mph30.6 kmh 29.98 in1015.2 mb 0.00 in0.0 mm 0.00 in0.0 mm 0.00 in0.0 mm
05:00 AM 50.0°F10.0°C 41.3°F5.2°C 72% 8.8 mph SSW14.2 kmh SSW 16.1 mph25.9 kmh 29.98 in1015.2 mb 0.00 in0.0 mm 0.00 in0.0 mm 0.00 in0.0 mm
05:15 AM 50.0°F10.0°C 41.7°F5.4°C 73% 7.7 mph SSW12.4 kmh SSW 16.1 mph25.9 kmh 29.98 in1015.2 mb 0.00 in0.0 mm 0.00 in0.0 mm 0.00 in0.0 mm
05:30 AM 50.0°F10.0°C 42.0°F5.6°C 74% 8.9 mph S14.3 kmh S 17.9 mph28.8 kmh 29.98 in1015.2 mb 0.00 in0.0 mm 0.00 in0.0 mm 0.00 in0.0 mm
05:45 AM 50.0°F10.0°C 42.4°F5.8°C 75% 7.5 mph SSW12.1 kmh SSW 17.5 mph28.2 kmh 29.98 in1015.2 mb 0.00 in0.0 mm 0.00 in0.0 mm 0.00 in0.0 mm
06:00 AM 50.0°F10.0°C 42.7°F5.9°C 76% 8.7 mph SSW14.0 kmh SSW 19.7 mph31.7 kmh 29.98 in1015.2 mb 0.00 in0.0 mm 0.00 in0.0 mm 0.00 in0.0 mm
06:15 AM 50.0°F10.0°C 43.4°F6.3°C 78% 8.6 mph S13.8 kmh S 22.5 mph36.2 kmh 29.98 in1015.2 mb 0.00 in0.0 mm 0.00 in0.0 mm 0.00 in0.0 mm
06:34 AM 49.8°F9.9°C 43.6°F6.4°C 79% 5.2 mph S8.4 kmh S 6.4 mph10.3 kmh 29.95 in1014.2 mb 0.00 in0.0 mm 0.00 in0.0 mm 0.00 in0.0 mm
06:45 AM 49.8°F9.9°C 43.9°F6.6°C 80% 8.4 mph SSW13.5 kmh SSW 16.8 mph27.0 kmh 29.98 in1015.2 mb 0.00 in0.0 mm 0.00 in0.0 mm 0.00 in0.0 mm
07:00 AM 49.8°F9.9°C 43.9°F6.6°C 80% 8.3 mph S13.4 kmh S 17.2 mph27.7 kmh 29.95 in1014.2 mb 0.00 in0.0 mm 0.00 in0.0 mm 0.00 in0.0 mm
07:15 AM 50.0°F10.0°C 44.1°F6.7°C 80% 8.6 mph S13.8 kmh S 22.2 mph35.7 kmh 29.95 in1014.2 mb 0.00 in0.0 mm 0.00 in0.0 mm 0.00 in0.0 mm
07:30 AM 50.2°F10.1°C 44.2°F6.8°C 80% 10.1 mph SSW16.3 kmh SSW 23.6 mph38.0 kmh 29.95 in1014.2 mb 0.00 in0.0 mm 0.00 in0.0 mm 0.00 in0.0 mm
07:45 AM 50.4°F10.2°C 44.1°F6.7°C 79% 8.5 mph SSW13.7 kmh SSW 17.5 mph28.2 kmh 29.95 in1014.2 mb 0.00 in0.0 mm 0.00 in0.0 mm 0.00 in0.0 mm
08:00 AM 50.5°F10.3°C 44.3°F6.8°C 79% 11.0 mph S17.7 kmh S 25.8 mph41.5 kmh 29.95 in1014.2 mb 0.00 in0.0 mm 0.00 in0.0 mm 0.00 in0.0 mm
08:15 AM 50.5°F10.3°C 44.9°F7.2°C 81% 9.6 mph S15.4 kmh S 20.4 mph32.8 kmh 29.95 in1014.2 mb 0.00 in0.0 mm 0.00 in0.0 mm 0.00 in0.0 mm
08:30 AM 50.5°F10.3°C 45.2°F7.3°C 82% 11.8 mph SSW19.0 kmh SSW 38.7 mph62.3 kmh 29.98 in1015.2 mb 0.00 in0.0 mm 0.00 in0.0 mm 0.00 in0.0 mm
08:45 AM 50.5°F10.3°C 45.2°F7.3°C 82% 9.9 mph SSW15.9 kmh SSW 24.3 mph39.1 kmh 29.98 in1015.2 mb 0.00 in0.0 mm 0.00 in0.0 mm 0.00 in0.0 mm
09:00 AM 50.5°F10.3°C 45.6°F7.6°C 83% 11.4 mph S18.3 kmh S 21.1 mph34.0 kmh 29.95 in1014.2 mb 0.00 in0.0 mm 0.00 in0.0 mm 0.00 in0.0 mm
09:15 AM 51.1°F10.6°C 46.4°F8.0°C 84% 10.0 mph S16.1 kmh S 23.6 mph38.0 kmh 29.95 in1014.2 mb 0.00 in0.0 mm 0.00 in0.0 mm 0.00 in0.0 mm
09:30 AM 51.1°F10.6°C 46.4°F8.0°C 84% 11.2 mph S18.0 kmh S 23.3 mph37.5 kmh 29.95 in1014.2 mb 0.00 in0.0 mm 0.00 in0.0 mm 0.00 in0.0 mm
09:45 AM 50.9°F10.5°C 45.9°F7.7°C 83% 12.1 mph SSW19.5 kmh SSW 28.3 mph45.5 kmh 29.95 in1014.2 mb 0.00 in0.0 mm 0.00 in0.0 mm 0.00 in0.0 mm
10:00 AM 50.9°F10.5°C 46.6°F8.1°C 85% 10.7 mph S17.2 kmh S 27.6 mph44.4 kmh 29.95 in1014.2 mb 0.05 in1.3 mm 0.07 in1.8 mm 0.04 in1.0 mm
10:15 AM 51.1°F10.6°C 46.7°F8.2°C 85% 9.9 mph S15.9 kmh S 21.1 mph34.0 kmh 29.95 in1014.2 mb 0.05 in1.3 mm 0.00 in0.0 mm 0.04 in1.0 mm
10:30 AM 51.1°F10.6°C 46.4°F8.0°C 84% 11.2 mph S18.0 kmh S 27.6 mph44.4 kmh 29.95 in1014.2 mb 0.05 in1.3 mm 0.00 in0.0 mm 0.04 in1.0 mm
10:45 AM 51.1°F10.6°C 46.7°F8.2°C 85% 11.4 mph S18.3 kmh S 22.2 mph35.7 kmh 29.95 in1014.2 mb 0.05 in1.3 mm 0.00 in0.0 mm 0.04 in1.0 mm
11:00 AM 51.1°F10.6°C 46.7°F8.2°C 85% 11.6 mph S18.7 kmh S 25.4 mph40.9 kmh 29.95 in1014.2 mb 0.00 in0.0 mm 0.00 in0.0 mm 0.04 in1.0 mm
11:15 AM 51.3°F10.7°C 47.2°F8.4°C 86% 11.7 mph S18.8 kmh S 25.8 mph41.5 kmh 29.95 in1014.2 mb 0.00 in0.0 mm 0.00 in0.0 mm 0.04 in1.0 mm
11:30 AM 51.3°F10.7°C 47.2°F8.4°C 86% 11.5 mph S18.5 kmh S 28.3 mph45.5 kmh 29.95 in1014.2 mb 0.00 in0.0 mm 0.00 in0.0 mm 0.04 in1.0 mm
11:45 AM 51.4°F10.8°C 47.4°F8.6°C 86% 10.9 mph S17.5 kmh S 28.3 mph45.5 kmh 29.95 in1014.2 mb 0.00 in0.0 mm 0.00 in0.0 mm 0.04 in1.0 mm
12:00 PM 51.6°F10.9°C 47.3°F8.5°C 85% 12.9 mph SSW20.8 kmh SSW 27.2 mph43.8 kmh 29.95 in1014.2 mb 0.00 in0.0 mm 0.00 in0.0 mm 0.04 in1.0 mm
12:15 PM 51.8°F11.0°C 47.1°F8.4°C 84% 13.1 mph SSW21.1 kmh SSW 38.7 mph62.3 kmh 29.95 in1014.2 mb 0.00 in0.0 mm 0.00 in0.0 mm 0.04 in1.0 mm
12:30 PM 52.2°F11.2°C 47.2°F8.4°C 83% 13.1 mph SW21.1 kmh SW 29.7 mph47.8 kmh 29.95 in1014.2 mb 0.00 in0.0 mm 0.00 in0.0 mm 0.04 in1.0 mm
12:45 PM 52.2°F11.2°C 47.2°F8.4°C 83% 15.6 mph S25.1 kmh S 32.6 mph52.5 kmh 29.95 in1014.2 mb 0.00 in0.0 mm 0.00 in0.0 mm 0.04 in1.0 mm
01:00 PM 52.2°F11.2°C 47.5°F8.6°C 84% 13.4 mph SW21.6 kmh SW 27.2 mph43.8 kmh 29.92 in1013.2 mb 0.00 in0.0 mm 0.00 in0.0 mm 0.04 in1.0 mm
01:15 PM 52.2°F11.2°C 47.5°F8.6°C 84% 12.8 mph SW20.6 kmh SW 29.7 mph47.8 kmh 29.95 in1014.2 mb 0.00 in0.0 mm 0.00 in0.0 mm 0.04 in1.0 mm
01:30 PM 52.3°F11.3°C 48.0°F8.9°C 85% 14.9 mph SSW24.0 kmh SSW 40.4 mph65.0 kmh 29.92 in1013.2 mb 0.00 in0.0 mm 0.00 in0.0 mm 0.04 in1.0 mm
01:45 PM 52.3°F11.3°C 48.3°F9.1°C 86% 11.8 mph S19.0 kmh S 26.8 mph43.1 kmh 29.92 in1013.2 mb 0.00 in0.0 mm 0.00 in0.0 mm 0.04 in1.0 mm
02:00 PM 52.3°F11.3°C 48.6°F9.2°C 87% 11.7 mph SSW18.8 kmh SSW 27.9 mph44.9 kmh 29.92 in1013.2 mb 0.05 in1.3 mm 0.07 in1.8 mm 0.09 in2.3 mm
02:15 PM 52.2°F11.2°C 48.7°F9.3°C 88% 9.0 mph SSW14.5 kmh SSW 20.4 mph32.8 kmh 29.92 in1013.2 mb 0.05 in1.3 mm 0.00 in0.0 mm 0.09 in2.3 mm
02:31 PM 52.2°F11.2°C 48.7°F9.3°C 88% 10.5 mph SSW16.9 kmh SSW 27.2 mph43.8 kmh 29.92 in1013.2 mb 0.05 in1.3 mm 0.00 in0.0 mm 0.09 in2.3 mm
02:45 PM 52.2°F11.2°C 49.0°F9.4°C 89% 12.6 mph SW20.3 kmh SW 23.6 mph38.0 kmh 29.92 in1013.2 mb 0.05 in1.3 mm 0.00 in0.0 mm 0.09 in2.3 mm
03:00 PM 52.2°F11.2°C 49.0°F9.4°C 89% 9.9 mph S15.9 kmh S 17.2 mph27.7 kmh 29.92 in1013.2 mb 0.05 in1.3 mm 0.00 in0.0 mm 0.14 in3.6 mm
03:15 PM 52.2°F11.2°C 49.0°F9.4°C 89% 10.8 mph SW17.4 kmh SW 27.9 mph44.9 kmh 29.92 in1013.2 mb 0.05 in1.3 mm 0.00 in0.0 mm 0.14 in3.6 mm
03:30 PM 52.3°F11.3°C 49.5°F9.7°C 90% 13.0 mph SW20.9 kmh SW 41.5 mph66.8 kmh 29.92 in1013.2 mb 0.05 in1.3 mm 0.00 in0.0 mm 0.14 in3.6 mm
03:45 PM 52.3°F11.3°C 49.5°F9.7°C 90% 11.9 mph SW19.2 kmh SW 24.3 mph39.1 kmh 29.92 in1013.2 mb 0.05 in1.3 mm 0.00 in0.0 mm 0.14 in3.6 mm
04:00 PM 52.3°F11.3°C 49.5°F9.7°C 90% 12.9 mph SSW20.8 kmh SSW 28.3 mph45.5 kmh 29.92 in1013.2 mb 0.00 in0.0 mm 0.00 in0.0 mm 0.14 in3.6 mm
04:15 PM 52.3°F11.3°C 49.5°F9.7°C 90% 10.5 mph SW16.9 kmh SW 20.8 mph33.5 kmh 29.92 in1013.2 mb 0.00 in0.0 mm 0.00 in0.0 mm 0.14 in3.6 mm
04:30 PM 52.3°F11.3°C 49.5°F9.7°C 90% 10.3 mph SSW16.6 kmh SSW 19.0 mph30.6 kmh 29.92 in1013.2 mb 0.00 in0.0 mm 0.00 in0.0 mm 0.14 in3.6 mm
04:45 PM 52.3°F11.3°C 49.5°F9.7°C 90% 11.6 mph SW18.7 kmh SW 24.3 mph39.1 kmh 29.92 in1013.2 mb 0.00 in0.0 mm 0.00 in0.0 mm 0.14 in3.6 mm
05:00 PM 52.5°F11.4°C 49.4°F9.7°C 89% 10.9 mph SSW17.5 kmh SSW 24.3 mph39.1 kmh 29.92 in1013.2 mb 0.00 in0.0 mm 0.00 in0.0 mm 0.14 in3.6 mm
05:15 PM 52.5°F11.4°C 49.4°F9.7°C 89% 11.0 mph W17.7 kmh W 22.2 mph35.7 kmh 29.92 in1013.2 mb 0.00 in0.0 mm 0.00 in0.0 mm 0.14 in3.6 mm
05:30 PM 52.7°F11.5°C 49.5°F9.7°C 89% 10.2 mph SSW16.4 kmh SSW 24.3 mph39.1 kmh 29.92 in1013.2 mb 0.00 in0.0 mm 0.00 in0.0 mm 0.14 in3.6 mm
05:45 PM 52.9°F11.6°C 49.7°F9.8°C 89% 10.8 mph SSW17.4 kmh SSW 23.3 mph37.5 kmh 29.92 in1013.2 mb 0.00 in0.0 mm 0.00 in0.0 mm 0.14 in3.6 mm
06:00 PM 52.9°F11.6°C 49.7°F9.8°C 89% 8.1 mph S13.0 kmh S 16.5 mph26.6 kmh 29.89 in1012.2 mb 0.00 in0.0 mm 0.00 in0.0 mm 0.14 in3.6 mm
06:15 PM 53.1°F11.7°C 49.9°F9.9°C 89% 9.7 mph SW15.6 kmh SW 20.4 mph32.8 kmh 29.92 in1013.2 mb 0.00 in0.0 mm 0.00 in0.0 mm 0.14 in3.6 mm
06:30 PM 53.1°F11.7°C 49.6°F9.8°C 88% 10.0 mph SW16.1 kmh SW 17.9 mph28.8 kmh 29.92 in1013.2 mb 0.00 in0.0 mm 0.00 in0.0 mm 0.14 in3.6 mm
06:45 PM 53.1°F11.7°C 49.6°F9.8°C 88% 10.5 mph SW16.9 kmh SW 19.0 mph30.6 kmh 29.92 in1013.2 mb 0.00 in0.0 mm 0.00 in0.0 mm 0.14 in3.6 mm
07:00 PM 53.1°F11.7°C 49.9°F9.9°C 89% 10.9 mph S17.5 kmh S 25.1 mph40.4 kmh 29.92 in1013.2 mb 0.00 in0.0 mm 0.00 in0.0 mm 0.14 in3.6 mm
07:15 PM 53.1°F11.7°C 49.9°F9.9°C 89% 10.6 mph SW17.1 kmh SW 20.4 mph32.8 kmh 29.92 in1013.2 mb 0.00 in0.0 mm 0.00 in0.0 mm 0.14 in3.6 mm
07:30 PM 53.1°F11.7°C 50.2°F10.1°C 90% 10.7 mph SSW17.2 kmh SSW 24.7 mph39.8 kmh 29.92 in1013.2 mb 0.00 in0.0 mm 0.00 in0.0 mm 0.14 in3.6 mm
07:45 PM 53.2°F11.8°C 50.4°F10.2°C 90% 10.4 mph S16.7 kmh S 26.8 mph43.1 kmh 29.92 in1013.2 mb 0.00 in0.0 mm 0.00 in0.0 mm 0.14 in3.6 mm
08:00 PM 53.2°F11.8°C 50.4°F10.2°C 90% 8.5 mph SSW13.7 kmh SSW 15.7 mph25.3 kmh 29.95 in1014.2 mb 0.06 in1.5 mm 0.08 in2.0 mm 0.19 in4.8 mm
08:15 PM 53.2°F11.8°C 50.4°F10.2°C 90% 8.9 mph S14.3 kmh S 17.2 mph27.7 kmh 29.92 in1013.2 mb 0.06 in1.5 mm 0.00 in0.0 mm 0.19 in4.8 mm
08:30 PM 53.2°F11.8°C 50.4°F10.2°C 90% 8.9 mph S14.3 kmh S 17.2 mph27.7 kmh 29.95 in1014.2 mb 0.06 in1.5 mm 0.00 in0.0 mm 0.19 in4.8 mm
08:45 PM 53.2°F11.8°C 50.7°F10.4°C 91% 8.8 mph S14.2 kmh S 24.3 mph39.1 kmh 29.95 in1014.2 mb 0.06 in1.5 mm 0.00 in0.0 mm 0.19 in4.8 mm
09:00 PM 53.4°F11.9°C 50.9°F10.5°C 91% 9.4 mph S15.1 kmh S 20.0 mph32.2 kmh 29.92 in1013.2 mb 0.00 in0.0 mm 0.00 in0.0 mm 0.19 in4.8 mm
09:15 PM 53.6°F12.0°C 51.3°F10.7°C 92% 9.4 mph SSW15.1 kmh SSW 19.0 mph30.6 kmh 29.95 in1014.2 mb 0.00 in0.0 mm 0.00 in0.0 mm 0.19 in4.8 mm
09:30 PM 53.6°F12.0°C 51.3°F10.7°C 92% 8.6 mph S13.8 kmh S 23.6 mph38.0 kmh 29.95 in1014.2 mb 0.00 in0.0 mm 0.00 in0.0 mm 0.19 in4.8 mm
09:45 PM 53.6°F12.0°C 51.3°F10.7°C 92% 8.2 mph SSW13.2 kmh SSW 17.2 mph27.7 kmh 29.95 in1014.2 mb 0.00 in0.0 mm 0.00 in0.0 mm 0.19 in4.8 mm
10:00 PM 53.8°F12.1°C 51.5°F10.8°C 92% 8.4 mph SSW13.5 kmh SSW 20.8 mph33.5 kmh 29.95 in1014.2 mb 0.00 in0.0 mm 0.00 in0.0 mm 0.19 in4.8 mm
10:15 PM 53.8°F12.1°C 51.5°F10.8°C 92% 9.3 mph SSW15.0 kmh SSW 18.3 mph29.5 kmh 29.95 in1014.2 mb 0.00 in0.0 mm 0.00 in0.0 mm 0.19 in4.8 mm
10:31 PM 54.0°F12.2°C 51.7°F10.9°C 92% 8.5 mph SW13.7 kmh SW 17.5 mph28.2 kmh 29.92 in1013.2 mb 0.00 in0.0 mm 0.00 in0.0 mm 0.19 in4.8 mm
10:34 PM 54.0°F12.2°C 51.7°F10.9°C 92% 10.5 mph W16.9 kmh W 12.9 mph20.8 kmh 29.92 in1013.2 mb 0.00 in0.0 mm 0.00 in0.0 mm 0.16 in4.1 mm
10:45 PM 54.0°F12.2°C 51.7°F10.9°C 92% 9.4 mph SSW15.1 kmh SSW 23.3 mph37.5 kmh 29.92 in1013.2 mb 0.00 in0.0 mm 0.00 in0.0 mm 0.16 in4.1 mm
11:00 PM 54.0°F12.2°C 51.4°F10.8°C 91% 9.2 mph SW14.8 kmh SW 19.3 mph31.1 kmh 29.92 in1013.2 mb 0.00 in0.0 mm 0.00 in0.0 mm 0.16 in4.1 mm
11:15 PM 54.0°F12.2°C 51.4°F10.8°C 91% 9.6 mph S15.4 kmh S 20.8 mph33.5 kmh 29.92 in1013.2 mb 0.00 in0.0 mm 0.00 in0.0 mm 0.16 in4.1 mm
11:30 PM 54.1°F12.3°C 51.6°F10.9°C 91% 9.7 mph SW15.6 kmh SW 23.3 mph37.5 kmh 29.92 in1013.2 mb 0.00 in0.0 mm 0.00 in0.0 mm 0.16 in4.1 mm
11:45 PM 54.1°F12.3°C 51.6°F10.9°C 91% 8.6 mph S13.8 kmh S 17.2 mph27.7 kmh 29.92 in1013.2 mb 0.00 in0.0 mm 0.00 in0.0 mm 0.16 in4.1 mm